sensor_id;sensor_type;location;lat;lon;timestamp;pressure;altitude;pressure_sealevel;temperature;humidity
12879;BME280;20617;49.476;10.986;2022-11-20T00:01:39;97809.94;;;3.16;100.00
12879;BME280;20617;49.476;10.986;2022-11-20T00:03:44;97815.09;;;3.16;100.00
12879;BME280;20617;49.476;10.986;2022-11-20T00:05:49;97817.72;;;3.13;100.00
12879;BME280;20617;49.476;10.986;2022-11-20T00:07:57;97815.09;;;3.16;100.00
12879;BME280;20617;49.476;10.986;2022-11-20T00:10:02;97810.84;;;3.15;100.00
12879;BME280;20617;49.476;10.986;2022-11-20T00:12:07;97819.34;;;3.17;100.00
12879;BME280;20617;49.476;10.986;2022-11-20T00:14:15;97821.06;;;3.18;100.00
12879;BME280;20617;49.476;10.986;2022-11-20T00:16:21;97816.75;;;3.18;100.00
12879;BME280;20617;49.476;10.986;2022-11-20T00:18:27;97817.59;;;3.19;100.00
12879;BME280;20617;49.476;10.986;2022-11-20T00:20:32;97820.09;;;3.24;100.00
12879;BME280;20617;49.476;10.986;2022-11-20T00:22:37;97804.56;;;3.28;100.00
12879;BME280;20617;49.476;10.986;2022-11-20T00:24:44;97801.00;;;3.35;100.00
12879;BME280;20617;49.476;10.986;2022-11-20T00:26:49;97796.69;;;3.37;100.00
12879;BME280;20617;49.476;10.986;2022-11-20T00:28:55;97798.44;;;3.34;100.00
12879;BME280;20617;49.476;10.986;2022-11-20T00:31:02;97808.72;;;3.35;100.00
12879;BME280;20617;49.476;10.986;2022-11-20T00:33:07;97806.97;;;3.36;100.00
12879;BME280;20617;49.476;10.986;2022-11-20T00:35:14;97814.00;;;3.28;100.00
12879;BME280;20617;49.476;10.986;2022-11-20T00:37:20;97814.78;;;3.31;100.00
12879;BME280;20617;49.476;10.986;2022-11-20T00:39:26;97816.44;;;3.35;100.00
12879;BME280;20617;49.476;10.986;2022-11-20T00:41:34;97814.78;;;3.31;100.00
12879;BME280;20617;49.476;10.986;2022-11-20T00:43:38;97814.81;;;3.30;100.00
12879;BME280;20617;49.476;10.986;2022-11-20T00:45:43;97820.88;;;3.29;100.00
12879;BME280;20617;49.476;10.986;2022-11-20T00:47:48;97818.19;;;3.33;100.00
12879;BME280;20617;49.476;10.986;2022-11-20T00:49:53;97818.88;;;3.42;100.00
12879;BME280;20617;49.476;10.986;2022-11-20T00:51:58;97812.78;;;3.46;100.00
12879;BME280;20617;49.476;10.986;2022-11-20T00:54:03;97804.94;;;3.52;100.00
12879;BME280;20617;49.476;10.986;2022-11-20T00:56:10;97807.41;;;3.56;100.00
12879;BME280;20617;49.476;10.986;2022-11-20T00:58:18;97811.66;;;3.59;100.00
12879;BME280;20617;49.476;10.986;2022-11-20T01:00:23;97813.34;;;3.60;100.00
12879;BME280;20617;49.476;10.986;2022-11-20T01:02:27;97810.69;;;3.63;100.00
12879;BME280;20617;49.476;10.986;2022-11-20T01:04:32;97804.81;;;3.58;100.00
12879;BME280;20617;49.476;10.986;2022-11-20T01:06:38;97795.38;;;3.58;100.00
12879;BME280;20617;49.476;10.986;2022-11-20T01:08:44;97801.34;;;3.59;100.00
12879;BME280;20617;49.476;10.986;2022-11-20T01:10:49;97818.47;;;3.60;100.00
12879;BME280;20617;49.476;10.986;2022-11-20T01:12:54;97818.47;;;3.60;100.00
12879;BME280;20617;49.476;10.986;2022-11-20T01:15:14;97812.53;;;3.58;100.00
12879;BME280;20617;49.476;10.986;2022-11-20T01:17:18;97828.78;;;3.60;100.00
12879;BME280;20617;49.476;10.986;2022-11-20T01:19:23;97828.72;;;3.63;100.00
12879;BME280;20617;49.476;10.986;2022-11-20T01:21:30;97815.78;;;3.66;100.00
12879;BME280;20617;49.476;10.986;2022-11-20T01:23:37;97823.50;;;3.66;100.00
12879;BME280;20617;49.476;10.986;2022-11-20T01:25:43;97814.97;;;3.64;100.00
12879;BME280;20617;49.476;10.986;2022-11-20T01:27:47;97820.91;;;3.68;100.00
12879;BME280;20617;49.476;10.986;2022-11-20T01:29:53;97816.53;;;3.71;100.00
12879;BME280;20617;49.476;10.986;2022-11-20T01:32:04;97813.13;;;3.71;100.00
12879;BME280;20617;49.476;10.986;2022-11-20T01:34:11;97819.09;;;3.71;100.00
12879;BME280;20617;49.476;10.986;2022-11-20T01:36:17;97818.13;;;3.77;100.00
12879;BME280;20617;49.476;10.986;2022-11-20T01:38:22;97812.00;;;3.81;100.00
12879;BME280;20617;49.476;10.986;2022-11-20T01:40:27;97809.41;;;3.82;100.00
12879;BME280;20617;49.476;10.986;2022-11-20T01:42:32;97812.81;;;3.84;100.00
12879;BME280;20617;49.476;10.986;2022-11-20T01:44:52;97799.06;;;3.85;100.00
12879;BME280;20617;49.476;10.986;2022-11-20T01:46:59;97803.31;;;3.86;100.00
12879;BME280;20617;49.476;10.986;2022-11-20T01:49:16;97804.25;;;3.84;100.00
12879;BME280;20617;49.476;10.986;2022-11-20T01:51:28;97808.47;;;3.86;100.00
12879;BME280;20617;49.476;10.986;2022-11-20T01:53:36;97805.03;;;3.88;100.00
12879;BME280;20617;49.476;10.986;2022-11-20T01:55:44;97799.88;;;3.88;100.00
12879;BME280;20617;49.476;10.986;2022-11-20T01:57:51;97800.66;;;3.91;100.00
12879;BME280;20617;49.476;10.986;2022-11-20T02:00:00;97800.66;;;3.91;100.00
12879;BME280;20617;49.476;10.986;2022-11-20T02:02:13;97795.47;;;3.93;100.00
12879;BME280;20617;49.476;10.986;2022-11-20T02:04:21;97802.22;;;3.97;100.00
12879;BME280;20617;49.476;10.986;2022-11-20T02:06:30;97792.81;;;3.96;100.00
12879;BME280;20617;49.476;10.986;2022-11-20T02:08:38;97790.97;;;4.01;100.00
12879;BME280;20617;49.476;10.986;2022-11-20T02:10:45;97797.84;;;4.02;100.00
12879;BME280;20617;49.476;10.986;2022-11-20T02:12:50;97800.41;;;4.02;100.00
12879;BME280;20617;49.476;10.986;2022-11-20T02:15:08;97794.38;;;4.03;100.00
12879;BME280;20617;49.476;10.986;2022-11-20T02:17:13;97804.66;;;4.04;100.00
12879;BME280;20617;49.476;10.986;2022-11-20T02:19:24;97813.97;;;4.08;100.00
12879;BME280;20617;49.476;10.986;2022-11-20T02:21:35;97804.81;;;3.97;100.00
12879;BME280;20617;49.476;10.986;2022-11-20T02:23:57;97807.75;;;3.81;100.00
12879;BME280;20617;49.476;10.986;2022-11-20T02:26:06;97806.22;;;3.73;100.00
12879;BME280;20617;49.476;10.986;2022-11-20T02:28:14;97807.13;;;3.70;100.00
12879;BME280;20617;49.476;10.986;2022-11-20T02:30:20;97809.63;;;3.73;100.00
12879;BME280;20617;49.476;10.986;2022-11-20T02:32:25;97810.53;;;3.71;100.00
12879;BME280;20617;49.476;10.986;2022-11-20T02:34:31;97808.88;;;3.68;100.00
12879;BME280;20617;49.476;10.986;2022-11-20T02:36:36;97808.13;;;3.63;100.00
12879;BME280;20617;49.476;10.986;2022-11-20T02:38:43;97795.38;;;3.58;100.00
12879;BME280;20617;49.476;10.986;2022-11-20T02:40:51;97795.53;;;3.51;100.00
12879;BME280;20617;49.476;10.986;2022-11-20T02:42:57;97803.38;;;3.43;100.00
12879;BME280;20617;49.476;10.986;2022-11-20T02:45:02;97806.84;;;3.42;100.00
12879;BME280;20617;49.476;10.986;2022-11-20T02:47:07;97798.56;;;3.28;100.00
12879;BME280;20617;49.476;10.986;2022-11-20T02:49:12;97807.19;;;3.25;100.00
12879;BME280;20617;49.476;10.986;2022-11-20T02:51:18;97814.00;;;3.29;100.00
12879;BME280;20617;49.476;10.986;2022-11-20T02:53:23;97807.00;;;3.34;100.00
12879;BME280;20617;49.476;10.986;2022-11-20T02:55:27;97801.97;;;3.28;100.00
12879;BME280;20617;49.476;10.986;2022-11-20T02:57:35;97804.66;;;3.24;100.00
12879;BME280;20617;49.476;10.986;2022-11-20T02:59:40;97806.41;;;3.23;100.00
12879;BME280;20617;49.476;10.986;2022-11-20T03:01:44;97802.16;;;3.19;100.00
12879;BME280;20617;49.476;10.986;2022-11-20T03:03:49;97804.09;;;3.08;100.00
12879;BME280;20617;49.476;10.986;2022-11-20T03:05:58;97805.91;;;3.04;100.00
12879;BME280;20617;49.476;10.986;2022-11-20T03:08:03;97805.91;;;3.04;100.00
12879;BME280;20617;49.476;10.986;2022-11-20T03:10:08;97799.03;;;3.05;100.00
12879;BME280;20617;49.476;10.986;2022-11-20T03:12:13;97798.19;;;3.04;100.00
12879;BME280;20617;49.476;10.986;2022-11-20T03:14:21;97792.91;;;3.12;100.00
12879;BME280;20617;49.476;10.986;2022-11-20T03:16:25;97796.25;;;3.14;100.00
12879;BME280;20617;49.476;10.986;2022-11-20T03:18:30;97801.53;;;3.09;100.00
12879;BME280;20617;49.476;10.986;2022-11-20T03:20:35;97794.78;;;3.04;100.00
12879;BME280;20617;49.476;10.986;2022-11-20T03:22:40;97801.66;;;3.02;100.00
12879;BME280;20617;49.476;10.986;2022-11-20T03:24:45;97802.56;;;2.99;100.00
12879;BME280;20617;49.476;10.986;2022-11-20T03:26:50;97800.94;;;2.95;100.00
12879;BME280;20617;49.476;10.986;2022-11-20T03:28:56;97800.09;;;2.94;100.00
12879;BME280;20617;49.476;10.986;2022-11-20T03:31:08;97803.38;;;3.01;100.00
12879;BME280;20617;49.476;10.986;2022-11-20T03:33:13;97800.94;;;2.95;100.00
12879;BME280;20617;49.476;10.986;2022-11-20T03:35:18;97802.56;;;2.99;100.00
12879;BME280;20617;49.476;10.986;2022-11-20T03:37:23;97799.03;;;3.05;100.00
12879;BME280;20617;49.476;10.986;2022-11-20T03:39:28;97796.44;;;3.05;100.00
12879;BME280;20617;49.476;10.986;2022-11-20T03:41:36;97792.13;;;3.07;100.00
12879;BME280;20617;49.476;10.986;2022-11-20T03:43:46;97798.09;;;3.09;100.00
12879;BME280;20617;49.476;10.986;2022-11-20T03:45:52;97798.00;;;3.13;100.00
12879;BME280;20617;49.476;10.986;2022-11-20T03:47:59;97793.59;;;3.20;100.00
12879;BME280;20617;49.476;10.986;2022-11-20T03:50:05;97785.00;;;3.21;100.00
12879;BME280;20617;49.476;10.986;2022-11-20T03:52:10;97782.38;;;3.23;100.00
12879;BME280;20617;49.476;10.986;2022-11-20T03:54:15;97777.41;;;3.15;100.00
12879;BME280;20617;49.476;10.986;2022-11-20T03:56:22;97786.69;;;3.22;100.00
12879;BME280;20617;49.476;10.986;2022-11-20T03:58:27;97775.59;;;3.20;100.00
12879;BME280;20617;49.476;10.986;2022-11-20T04:00:32;97774.66;;;3.24;100.00
12879;BME280;20617;49.476;10.986;2022-11-20T04:02:37;97780.47;;;3.32;100.00
12879;BME280;20617;49.476;10.986;2022-11-20T04:04:45;97782.84;;;3.42;100.00
12879;BME280;20617;49.476;10.986;2022-11-20T04:06:50;97775.91;;;3.47;100.00
12879;BME280;20617;49.476;10.986;2022-11-20T04:08:55;97772.34;;;3.52;100.00
12879;BME280;20617;49.476;10.986;2022-11-20T04:11:12;97774.88;;;3.54;100.00
12879;BME280;20617;49.476;10.986;2022-11-20T04:13:17;97774.91;;;3.52;100.00
12879;BME280;20617;49.476;10.986;2022-11-20T04:15:22;97771.59;;;3.46;100.00
12879;BME280;20617;49.476;10.986;2022-11-20T04:17:27;97766.50;;;3.44;100.00
12879;BME280;20617;49.476;10.986;2022-11-20T04:19:31;97773.34;;;3.45;100.00
12879;BME280;20617;49.476;10.986;2022-11-20T04:21:39;97770.91;;;3.39;100.00
12879;BME280;20617;49.476;10.986;2022-11-20T04:23:44;97775.19;;;3.38;100.00
12879;BME280;20617;49.476;10.986;2022-11-20T04:25:49;97769.22;;;3.38;100.00
12879;BME280;20617;49.476;10.986;2022-11-20T04:27:54;97765.75;;;3.39;100.00
12879;BME280;20617;49.476;10.986;2022-11-20T04:29:59;97766.66;;;3.36;100.00
12879;BME280;20617;49.476;10.986;2022-11-20T04:32:04;97769.31;;;3.33;100.00
12879;BME280;20617;49.476;10.986;2022-11-20T04:34:11;97759.91;;;3.31;100.00
12879;BME280;20617;49.476;10.986;2022-11-20T04:36:17;97755.63;;;3.31;100.00
12879;BME280;20617;49.476;10.986;2022-11-20T04:38:25;97761.50;;;3.36;100.00
12879;BME280;20617;49.476;10.986;2022-11-20T04:40:32;97764.78;;;3.43;100.00
12879;BME280;20617;49.476;10.986;2022-11-20T04:42:37;97768.19;;;3.45;100.00
12879;BME280;20617;49.476;10.986;2022-11-20T04:44:42;97763.03;;;3.47;100.00
12879;BME280;20617;49.476;10.986;2022-11-20T04:46:47;97767.16;;;3.54;100.00
12879;BME280;20617;49.476;10.986;2022-11-20T04:48:52;97762.75;;;3.59;100.00
12879;BME280;20617;49.476;10.986;2022-11-20T04:50:56;97763.53;;;3.62;100.00
12879;BME280;20617;49.476;10.986;2022-11-20T04:53:01;97761.91;;;3.58;100.00
12879;BME280;20617;49.476;10.986;2022-11-20T04:55:09;97762.63;;;3.63;100.00
12879;BME280;20617;49.476;10.986;2022-11-20T04:57:15;97764.22;;;3.69;100.00
12879;BME280;20617;49.476;10.986;2022-11-20T04:59:20;97757.31;;;3.71;100.00
12879;BME280;20617;49.476;10.986;2022-11-20T05:01:25;97755.53;;;3.75;100.00
12879;BME280;20617;49.476;10.986;2022-11-20T05:03:30;97760.66;;;3.75;100.00
12879;BME280;20617;49.476;10.986;2022-11-20T05:05:42;97756.38;;;3.75;100.00
12879;BME280;20617;49.476;10.986;2022-11-20T05:07:46;97759.72;;;3.79;100.00
12879;BME280;20617;49.476;10.986;2022-11-20T05:09:51;97757.16;;;3.79;100.00
12879;BME280;20617;49.476;10.986;2022-11-20T05:11:59;97759.81;;;3.74;100.00
12879;BME280;20617;49.476;10.986;2022-11-20T05:14:03;97757.38;;;3.70;100.00
12879;BME280;20617;49.476;10.986;2022-11-20T05:16:09;97752.34;;;3.63;100.00
12879;BME280;20617;49.476;10.986;2022-11-20T05:18:15;97766.59;;;3.39;100.00
12879;BME280;20617;49.476;10.986;2022-11-20T05:20:20;97776.31;;;3.27;100.00
12879;BME280;20617;49.476;10.986;2022-11-20T05:22:24;97777.22;;;3.24;100.00
12879;BME280;20617;49.476;10.986;2022-11-20T05:24:29;97768.47;;;3.33;100.00
12879;BME280;20617;49.476;10.986;2022-11-20T05:26:34;97770.13;;;3.35;100.00
12879;BME280;20617;49.476;10.986;2022-11-20T05:28:42;97780.59;;;3.26;100.00
12879;BME280;20617;49.476;10.986;2022-11-20T05:30:47;97771.81;;;3.36;100.00
12879;BME280;20617;49.476;10.986;2022-11-20T05:32:52;97759.69;;;3.42;100.00
12879;BME280;20617;49.476;10.986;2022-11-20T05:34:56;97766.38;;;3.50;100.00
12879;BME280;20617;49.476;10.986;2022-11-20T05:37:01;97750.78;;;3.58;100.00
12879;BME280;20617;49.476;10.986;2022-11-20T05:39:06;97757.47;;;3.63;100.00
12879;BME280;20617;49.476;10.986;2022-11-20T05:41:13;97747.94;;;3.69;100.00
12879;BME280;20617;49.476;10.986;2022-11-20T05:43:18;97738.47;;;3.71;100.00
12879;BME280;20617;49.476;10.986;2022-11-20T05:45:25;97740.88;;;3.78;100.00
12879;BME280;20617;49.476;10.986;2022-11-20T05:47:32;97733.88;;;3.83;100.00
12879;BME280;20617;49.476;10.986;2022-11-20T05:49:37;97731.19;;;3.88;100.00
12879;BME280;20617;49.476;10.986;2022-11-20T05:51:43;97740.75;;;3.83;100.00
12879;BME280;20617;49.476;10.986;2022-11-20T05:53:48;97745.88;;;3.84;100.00
12879;BME280;20617;49.476;10.986;2022-11-20T05:55:57;97736.34;;;3.88;100.00
12879;BME280;20617;49.476;10.986;2022-11-20T05:58:02;97736.28;;;3.91;100.00
12879;BME280;20617;49.476;10.986;2022-11-20T06:00:08;97736.16;;;3.96;100.00
12879;BME280;20617;49.476;10.986;2022-11-20T06:02:16;97736.03;;;4.02;100.00
12879;BME280;20617;49.476;10.986;2022-11-20T06:04:21;97735.09;;;4.04;100.00
12879;BME280;20617;49.476;10.986;2022-11-20T06:06:26;97727.25;;;4.09;100.00
12879;BME280;20617;49.476;10.986;2022-11-20T06:08:31;97728.91;;;4.12;100.00
12879;BME280;20617;49.476;10.986;2022-11-20T06:10:36;97738.28;;;4.14;100.00
12879;BME280;20617;49.476;10.986;2022-11-20T06:12:41;97731.38;;;4.16;100.00
12879;BME280;20617;49.476;10.986;2022-11-20T06:14:46;97733.91;;;4.18;100.00
12879;BME280;20617;49.476;10.986;2022-11-20T06:16:51;97726.09;;;4.21;100.00
12879;BME280;20617;49.476;10.986;2022-11-20T06:18:58;97735.53;;;4.22;100.00
12879;BME280;20617;49.476;10.986;2022-11-20T06:21:05;97733.81;;;4.22;100.00
12879;BME280;20617;49.476;10.986;2022-11-20T06:23:10;97729.41;;;4.26;100.00
12879;BME280;20617;49.476;10.986;2022-11-20T06:25:15;97736.22;;;4.28;100.00
12879;BME280;20617;49.476;10.986;2022-11-20T06:27:20;97731.88;;;4.30;100.00
12879;BME280;20617;49.476;10.986;2022-11-20T06:29:25;97742.19;;;4.30;100.00
12879;BME280;20617;49.476;10.986;2022-11-20T06:31:34;97734.66;;;4.21;100.00
12879;BME280;20617;49.476;10.986;2022-11-20T06:33:39;97745.03;;;4.20;100.00
12879;BME280;20617;49.476;10.986;2022-11-20T06:35:47;97734.66;;;4.21;100.00
12879;BME280;20617;49.476;10.986;2022-11-20T06:37:59;97732.06;;;4.23;100.00
12879;BME280;20617;49.476;10.986;2022-11-20T06:40:05;97741.44;;;4.25;100.00
12879;BME280;20617;49.476;10.986;2022-11-20T06:42:10;97739.66;;;4.27;100.00
12879;BME280;20617;49.476;10.986;2022-11-20T06:44:15;97743.91;;;4.30;100.00
12879;BME280;20617;49.476;10.986;2022-11-20T06:46:20;97742.28;;;4.26;100.00
12879;BME280;20617;49.476;10.986;2022-11-20T06:48:26;97757.25;;;4.10;100.00
12879;BME280;20617;49.476;10.986;2022-11-20T06:50:31;97762.56;;;4.04;100.00
12879;BME280;20617;49.476;10.986;2022-11-20T06:52:38;97758.31;;;4.01;100.00
12879;BME280;20617;49.476;10.986;2022-11-20T06:54:44;97763.38;;;4.06;100.00
12879;BME280;20617;49.476;10.986;2022-11-20T06:56:49;97757.31;;;4.08;100.00
12879;BME280;20617;49.476;10.986;2022-11-20T06:58:54;97756.34;;;4.13;100.00
12879;BME280;20617;49.476;10.986;2022-11-20T07:00:59;97755.34;;;4.18;100.00
12879;BME280;20617;49.476;10.986;2022-11-20T07:03:04;97754.34;;;4.25;100.00
12879;BME280;20617;49.476;10.986;2022-11-20T07:05:09;97749.94;;;4.29;100.00
12879;BME280;20617;49.476;10.986;2022-11-20T07:07:16;97748.97;;;4.33;100.00
12879;BME280;20617;49.476;10.986;2022-11-20T07:09:24;97749.78;;;4.35;100.00
12879;BME280;20617;49.476;10.986;2022-11-20T07:11:29;97754.91;;;4.37;100.00
12879;BME280;20617;49.476;10.986;2022-11-20T07:13:33;97757.34;;;4.41;100.00
12879;BME280;20617;49.476;10.986;2022-11-20T07:15:38;97760.78;;;4.42;100.00
12879;BME280;20617;49.476;10.986;2022-11-20T07:17:43;97760.69;;;4.45;100.00
12879;BME280;20617;49.476;10.986;2022-11-20T07:19:48;97765.75;;;4.48;100.00
12879;BME280;20617;49.476;10.986;2022-11-20T07:21:53;97761.44;;;4.50;100.00
12879;BME280;20617;49.476;10.986;2022-11-20T07:23:58;97762.34;;;4.47;100.00
12879;BME280;20617;49.476;10.986;2022-11-20T07:26:06;97767.47;;;4.49;100.00
12879;BME280;20617;49.476;10.986;2022-11-20T07:28:11;97770.00;;;4.50;100.00
12879;BME280;20617;49.476;10.986;2022-11-20T07:30:16;97757.09;;;4.52;100.00
12879;BME280;20617;49.476;10.986;2022-11-20T07:32:21;97760.41;;;4.57;100.00
12879;BME280;20617;49.476;10.986;2022-11-20T07:34:26;97765.47;;;4.60;100.00
12879;BME280;20617;49.476;10.986;2022-11-20T07:36:31;97763.59;;;4.65;100.00
12879;BME280;20617;49.476;10.986;2022-11-20T07:38:37;97765.25;;;4.68;100.00
12879;BME280;20617;49.476;10.986;2022-11-20T07:40:43;97747.09;;;4.72;100.00
12879;BME280;20617;49.476;10.986;2022-11-20T07:42:52;97758.13;;;4.78;100.00
12879;BME280;20617;49.476;10.986;2022-11-20T07:44:57;97756.59;;;4.70;100.00
12879;BME280;20617;49.476;10.986;2022-11-20T07:47:02;97760.16;;;4.66;100.00
12879;BME280;20617;49.476;10.986;2022-11-20T07:49:07;97769.53;;;4.69;100.00
12879;BME280;20617;49.476;10.986;2022-11-20T07:51:14;97772.31;;;4.61;100.00
12879;BME280;20617;49.476;10.986;2022-11-20T07:53:18;97773.06;;;4.65;100.00
12879;BME280;20617;49.476;10.986;2022-11-20T07:55:24;97769.53;;;4.69;100.00
12879;BME280;20617;49.476;10.986;2022-11-20T07:57:28;97767.00;;;4.67;100.00
12879;BME280;20617;49.476;10.986;2022-11-20T07:59:36;97765.06;;;4.75;100.00
12879;BME280;20617;49.476;10.986;2022-11-20T08:01:44;97769.41;;;4.73;100.00
12879;BME280;20617;49.476;10.986;2022-11-20T08:03:49;97766.66;;;4.80;100.00
12879;BME280;20617;49.476;10.986;2022-11-20T08:05:54;97770.88;;;4.84;100.00
12879;BME280;20617;49.476;10.986;2022-11-20T08:07:58;97763.06;;;4.85;100.00
12879;BME280;20617;49.476;10.986;2022-11-20T08:10:04;97759.56;;;4.88;100.00
12879;BME280;20617;49.476;10.986;2022-11-20T08:12:16;97756.81;;;4.94;100.00
12879;BME280;20617;49.476;10.986;2022-11-20T08:14:37;97761.03;;;4.96;100.00
12879;BME280;20617;49.476;10.986;2022-11-20T08:16:46;97759.22;;;5.00;100.00
12879;BME280;20617;49.476;10.986;2022-11-20T08:18:51;97760.84;;;5.04;100.00
12879;BME280;20617;49.476;10.986;2022-11-20T08:20:56;97755.63;;;5.06;100.00
12879;BME280;20617;49.476;10.986;2022-11-20T08:23:02;97753.78;;;5.11;100.00
12879;BME280;20617;49.476;10.986;2022-11-20T08:25:08;97759.78;;;5.11;100.00
12879;BME280;20617;49.476;10.986;2022-11-20T08:27:13;97763.16;;;5.13;100.00
12879;BME280;20617;49.476;10.986;2022-11-20T08:29:18;97759.69;;;5.14;100.00
12879;BME280;20617;49.476;10.986;2022-11-20T08:31:26;97762.25;;;5.14;100.00
12879;BME280;20617;49.476;10.986;2022-11-20T08:33:31;97751.06;;;5.15;100.00
12879;BME280;20617;49.476;10.986;2022-11-20T08:35:36;97756.22;;;5.15;100.00
12879;BME280;20617;49.476;10.986;2022-11-20T08:37:46;97757.81;;;5.19;100.00
12879;BME280;20617;49.476;10.986;2022-11-20T08:39:51;97748.25;;;5.23;100.00
12879;BME280;20617;49.476;10.986;2022-11-20T08:41:58;97740.41;;;5.28;100.00
12879;BME280;20617;49.476;10.986;2022-11-20T08:44:05;97751.44;;;5.33;100.00
12879;BME280;20617;49.476;10.986;2022-11-20T08:46:10;97748.75;;;5.36;100.00
12879;BME280;20617;49.476;10.986;2022-11-20T08:48:18;97752.00;;;5.42;100.00
12879;BME280;20617;49.476;10.986;2022-11-20T08:50:23;97749.44;;;5.41;100.00
12879;BME280;20617;49.476;10.986;2022-11-20T08:52:28;97741.72;;;5.41;100.00
12879;BME280;20617;49.476;10.986;2022-11-20T08:54:37;97746.97;;;5.38;100.00
12879;BME280;20617;49.476;10.986;2022-11-20T08:56:42;97751.34;;;5.36;100.00
12879;BME280;20617;49.476;10.986;2022-11-20T08:58:47;97744.44;;;5.36;100.00
12879;BME280;20617;49.476;10.986;2022-11-20T09:01:12;97752.09;;;5.39;100.00
12879;BME280;20617;49.476;10.986;2022-11-20T09:03:22;97753.75;;;5.42;100.00
12879;BME280;20617;49.476;10.986;2022-11-20T09:05:33;97741.69;;;5.42;100.00
12879;BME280;20617;49.476;10.986;2022-11-20T09:07:38;97740.84;;;5.42;100.00
12879;BME280;20617;49.476;10.986;2022-11-20T09:09:44;97746.03;;;5.40;100.00
12879;BME280;20617;49.476;10.986;2022-11-20T09:12:09;97736.63;;;5.38;100.00
12879;BME280;20617;49.476;10.986;2022-11-20T09:14:14;97736.69;;;5.36;100.00
12879;BME280;20617;49.476;10.986;2022-11-20T09:16:19;97735.13;;;5.31;100.00
12879;BME280;20617;49.476;10.986;2022-11-20T09:18:27;97731.00;;;5.25;100.00
12879;BME280;20617;49.476;10.986;2022-11-20T09:20:33;97732.94;;;5.18;100.00
12879;BME280;20617;49.476;10.986;2022-11-20T09:22:40;97732.13;;;5.16;100.00
12879;BME280;20617;49.476;10.986;2022-11-20T09:24:45;97736.38;;;5.17;100.00
12879;BME280;20617;49.476;10.986;2022-11-20T09:26:50;97735.41;;;5.21;100.00
12879;BME280;20617;49.476;10.986;2022-11-20T09:28:55;97730.34;;;5.18;100.00
12879;BME280;20617;49.476;10.986;2022-11-20T09:31:00;97734.41;;;5.26;100.00
12879;BME280;20617;49.476;10.986;2022-11-20T09:33:05;97727.34;;;5.32;100.00
12879;BME280;20617;49.476;10.986;2022-11-20T09:35:13;97722.97;;;5.34;100.00
12879;BME280;20617;49.476;10.986;2022-11-20T09:37:19;97729.88;;;5.34;100.00
12879;BME280;20617;49.476;10.986;2022-11-20T09:39:24;97735.03;;;5.34;100.00
12879;BME280;20617;49.476;10.986;2022-11-20T09:41:47;97733.22;;;5.37;100.00
12879;BME280;20617;49.476;10.986;2022-11-20T09:44:03;97740.09;;;5.38;100.00
12879;BME280;20617;49.476;10.986;2022-11-20T09:46:15;97747.03;;;5.36;100.00
12879;BME280;20617;49.476;10.986;2022-11-20T09:48:32;97752.47;;;5.26;100.00
12879;BME280;20617;49.476;10.986;2022-11-20T09:50:47;97750.91;;;5.21;100.00
12879;BME280;20617;49.476;10.986;2022-11-20T09:55:24;97758.28;;;5.03;100.00
12879;BME280;20617;49.476;10.986;2022-11-20T09:57:35;97767.91;;;4.97;100.00
12879;BME280;20617;49.476;10.986;2022-11-20T09:59:42;97777.44;;;4.95;100.00
12879;BME280;20617;49.476;10.986;2022-11-20T10:01:47;97778.25;;;4.96;100.00
12879;BME280;20617;49.476;10.986;2022-11-20T10:03:57;97771.53;;;4.90;100.00
12879;BME280;20617;49.476;10.986;2022-11-20T10:06:10;97766.84;;;5.05;100.00
12879;BME280;20617;49.476;10.986;2022-11-20T10:08:19;97758.00;;;5.13;100.00
12879;BME280;20617;49.476;10.986;2022-11-20T10:10:31;97752.56;;;5.22;100.00
12879;BME280;20617;49.476;10.986;2022-11-20T10:12:57;97734.41;;;5.27;100.00
12879;BME280;20617;49.476;10.986;2022-11-20T10:15:14;97736.88;;;5.30;100.00
12879;BME280;20617;49.476;10.986;2022-11-20T10:17:36;97742.78;;;5.34;100.00
12879;BME280;20617;49.476;10.986;2022-11-20T10:20:00;97725.53;;;5.36;100.00
12879;BME280;20617;49.476;10.986;2022-11-20T10:22:20;97731.47;;;5.38;100.00
12879;BME280;20617;49.476;10.986;2022-11-20T10:24:48;97731.25;;;5.45;100.00
12879;BME280;20617;49.476;10.986;2022-11-20T10:27:00;97738.81;;;5.52;100.00
12879;BME280;20617;49.476;10.986;2022-11-20T10:29:11;97732.91;;;5.48;100.00
12879;BME280;20617;49.476;10.986;2022-11-20T10:31:27;97728.59;;;5.49;100.00
12879;BME280;20617;49.476;10.986;2022-11-20T10:33:36;97721.00;;;5.44;100.00
12879;BME280;20617;49.476;10.986;2022-11-20T10:36:10;97726.38;;;5.36;100.00
12879;BME280;20617;49.476;10.986;2022-11-20T10:38:23;97724.50;;;5.41;100.00
12879;BME280;20617;49.476;10.986;2022-11-20T10:40:34;97720.91;;;5.47;100.00
12879;BME280;20617;49.476;10.986;2022-11-20T10:42:43;97715.84;;;5.44;100.00
12879;BME280;20617;49.476;10.986;2022-11-20T10:44:53;97717.50;;;5.45;100.00
12879;BME280;20617;49.476;10.986;2022-11-20T10:47:13;97708.03;;;5.45;100.00
12879;BME280;20617;49.476;10.986;2022-11-20T10:49:20;97705.34;;;5.49;100.00
12879;BME280;20617;49.476;10.986;2022-11-20T10:51:32;97705.22;;;5.53;100.00
12879;BME280;20617;49.476;10.986;2022-11-20T10:53:53;97712.25;;;5.48;100.00
12879;BME280;20617;49.476;10.986;2022-11-20T10:56:05;97707.00;;;5.51;100.00
12879;BME280;20617;49.476;10.986;2022-11-20T10:58:14;97712.88;;;5.56;100.00
12879;BME280;20617;49.476;10.986;2022-11-20T11:00:22;97709.66;;;5.48;100.00
12879;BME280;20617;49.476;10.986;2022-11-20T11:02:33;97709.66;;;5.48;100.00
12879;BME280;20617;49.476;10.986;2022-11-20T11:04:43;97707.81;;;5.53;100.00
12879;BME280;20617;49.476;10.986;2022-11-20T11:06:49;97701.63;;;5.57;100.00
12879;BME280;20617;49.476;10.986;2022-11-20T11:08:56;97703.66;;;5.48;100.00